Time;durP1;ratioP1;P1;durP2;ratioP2;P2;SDS_P1;SDS_P2;PMS_P1;PMS_P2;Temp;Humidity;BMP_temperature;BMP_pressure;BME280_temperature;BME280_humidity;BME280_pressure;Samples;Min_cycle;Max_cycle;Signal;HPM_P1;HPM_P2
2023/03/12 00:00:14;;;;;;;11.10;7.30;;;;;;;-0.03;100.00;-18026.47;5021319;28;20045;-87
2023/03/12 00:02:40;;;;;;;11.43;6.88;;;;;;;-0.02;100.00;-18026.91;5015959;28;20061;-88
2023/03/12 00:05:05;;;;;;;9.07;7.28;;;;;;;-0.01;100.00;-18027.16;5020775;28;20038;-87
2023/03/12 00:07:31;;;;;;;10.60;7.00;;;;;;;0.02;100.00;-18027.88;5025526;28;20400;-87
2023/03/12 00:09:56;;;;;;;12.05;7.50;;;;;;;0.01;100.00;-18027.44;5002782;28;20080;-87
2023/03/12 00:12:22;;;;;;;18.95;7.15;;;;;;;0.03;100.00;-18028.00;5031134;28;20042;-87
2023/03/12 00:14:47;;;;;;;10.75;8.27;;;;;;;0.04;100.00;-18028.41;5017857;28;20041;-87
2023/03/12 00:17:12;;;;;;;11.95;7.13;;;;;;;0.11;100.00;-18030.34;5005413;28;20073;-87
2023/03/12 00:19:38;;;;;;;13.93;7.75;;;;;;;0.13;100.00;-18030.91;5002794;28;20068;-87
2023/03/12 00:22:03;;;;;;;12.15;7.07;;;;;;;0.17;100.00;-18032.03;5008101;28;20041;-87
2023/03/12 00:24:28;;;;;;;11.60;7.00;;;;;;;0.32;100.00;-18035.91;5019152;28;20045;-87
2023/03/12 00:26:54;;;;;;;10.20;6.55;;;;;;;0.28;100.00;-18034.78;5021623;28;20192;-87
2023/03/12 00:29:19;;;;;;;10.90;6.78;;;;;;;0.28;100.00;-18034.78;5005185;28;20133;-87
2023/03/12 00:31:45;;;;;;;10.43;7.38;;;;;;;0.25;100.00;-18033.97;5020109;28;20037;-87
2023/03/12 00:34:10;;;;;;;11.65;7.30;;;;;;;0.26;100.00;-18034.38;5021667;28;20067;-85
2023/03/12 00:36:36;;;;;;;9.80;6.78;;;;;;;0.30;100.00;-18035.34;5015932;28;20098;-85
2023/03/12 00:39:01;;;;;;;9.93;7.43;;;;;;;0.30;100.00;-18035.34;5025608;28;21191;-87
2023/03/12 00:41:29;;;;;;;12.77;7.32;;;;;;;0.33;100.00;-18036.19;4990757;28;20058;-86
2023/03/12 00:43:54;;;;;;;14.00;7.50;;;;;;;0.35;100.00;-18036.72;5030522;28;20046;-85
2023/03/12 00:46:20;;;;;;;12.95;6.68;;;;;;;0.34;100.00;-18036.59;4991905;28;20054;-85
2023/03/12 00:48:46;;;;;;;9.68;6.25;;;;;;;0.35;100.00;-18036.88;5002350;28;20066;-85
2023/03/12 00:51:11;;;;;;;11.73;6.13;;;;;;;0.43;100.00;-18038.94;5000860;28;21469;-87
2023/03/12 00:53:37;;;;;;;8.75;6.20;;;;;;;0.40;100.00;-18038.13;4973307;28;20051;-86
2023/03/12 00:56:03;;;;;;;9.32;6.50;;;;;;;0.41;100.00;-18038.41;4987030;28;20042;-86
2023/03/12 00:58:28;;;;;;;11.30;6.32;;;;;;;0.42;100.00;-18038.66;4999330;28;20405;-86
2023/03/12 01:00:54;;;;;;;10.90;6.93;;;;;;;0.39;100.00;-18037.97;4973205;28;20034;-87
2023/03/12 01:03:19;;;;;;;9.15;6.38;;;;;;;0.40;100.00;-18038.13;4974968;28;20157;-87
2023/03/12 01:05:45;;;;;;;11.05;6.95;;;;;;;0.39;100.00;-18037.97;4991567;28;20044;-86
2023/03/12 01:08:11;;;;;;;11.07;6.57;;;;;;;0.42;100.00;-18038.66;4981593;28;20505;-86
2023/03/12 01:10:40;;;;;;;11.48;6.03;;;;;;;0.42;100.00;-18038.66;4988578;28;20060;-86
2023/03/12 01:13:06;;;;;;;14.10;6.80;;;;;;;0.44;100.00;-18039.22;4993041;28;20525;-87
2023/03/12 01:15:31;;;;;;;13.27;6.80;;;;;;;0.50;100.00;-18040.88;5017024;28;20128;-86
2023/03/12 01:17:56;;;;;;;10.10;5.32;;;;;;;0.52;100.00;-18041.31;5023822;28;20041;-86
2023/03/12 01:20:22;;;;;;;11.68;6.20;;;;;;;0.54;100.00;-18042.00;5003425;28;20065;-86
2023/03/12 01:22:48;;;;;;;8.65;5.85;;;;;;;0.57;100.00;-18042.69;5008645;28;20033;-86
2023/03/12 01:25:14;;;;;;;10.63;6.03;;;;;;;0.61;100.00;-18043.94;5005771;28;20072;-86
2023/03/12 01:27:39;;;;;;;9.43;6.07;;;;;;;0.61;100.00;-18043.94;5017970;28;20484;-86
2023/03/12 01:30:05;;;;;;;12.75;7.10;;;;;;;0.62;100.00;-18044.22;5006948;28;20053;-86
2023/03/12 01:32:30;;;;;;;11.48;6.32;;;;;;;0.66;100.00;-18045.19;5020014;28;20034;-87
2023/03/12 01:34:57;;;;;;;10.32;5.72;;;;;;;0.64;100.00;-18044.75;5002770;28;20090;-86
2023/03/12 01:37:23;;;;;;;11.88;6.47;;;;;;;0.66;100.00;-18045.19;5002581;28;20124;-86
2023/03/12 01:39:48;;;;;;;11.73;6.18;;;;;;;0.70;100.00;-18046.16;5009176;28;20592;-86
2023/03/12 01:42:14;;;;;;;11.43;6.28;;;;;;;0.70;100.00;-18046.28;5011195;28;20116;-86
2023/03/12 01:44:58;;;;;;;13.77;6.95;;;;;;;0.75;100.00;-18047.69;4998499;28;20524;-86
2023/03/12 01:47:23;;;;;;;14.43;8.98;;;;;;;0.76;100.00;-18047.81;4968290;28;20125;-86
2023/03/12 01:49:51;;;;;;;11.32;5.65;;;;;;;0.71;100.00;-18046.56;5023135;28;20117;-86
2023/03/12 01:52:24;;;;;;;12.27;6.50;;;;;;;0.73;100.00;-18047.13;5026102;28;20045;-87
2023/03/12 01:54:58;;;;;;;14.07;6.80;;;;;;;0.77;100.00;-18048.09;5021989;28;20458;-86
2023/03/12 01:57:47;;;;;;;9.77;5.97;;;;;;;0.77;100.00;-18048.09;4989318;28;20049;-87
2023/03/12 02:00:18;;;;;;;10.15;6.75;;;;;;;0.77;100.00;-18048.22;5003954;28;20067;-86
2023/03/12 02:02:46;;;;;;;10.45;6.53;;;;;;;0.77;100.00;-18048.09;5007028;28;20139;-86
2023/03/12 02:05:11;;;;;;;10.30;6.40;;;;;;;0.77;100.00;-18048.09;5012157;28;29434;-86
2023/03/12 02:07:37;;;;;;;9.60;6.00;;;;;;;0.80;100.00;-18049.06;5023397;28;20049;-86
2023/03/12 02:10:04;;;;;;;13.85;6.68;;;;;;;0.83;100.00;-18049.88;5008571;28;20492;-86
2023/03/12 02:12:29;;;;;;;11.55;6.00;;;;;;;0.85;100.00;-18050.31;5027313;28;20042;-86
2023/03/12 02:14:55;;;;;;;12.32;6.70;;;;;;;0.83;100.00;-18049.75;5021433;28;20574;-86
2023/03/12 02:17:20;;;;;;;11.68;5.97;;;;;;;0.85;100.00;-18050.31;5020949;28;20137;-86
2023/03/12 02:19:58;;;;;;;11.52;6.20;;;;;;;0.83;100.00;-18049.75;5025247;28;20073;-86
2023/03/12 02:22:24;;;;;;;12.13;6.85;;;;;;;0.80;100.00;-18049.06;5029547;28;20064;-86
2023/03/12 02:25:03;;;;;;;10.68;5.72;;;;;;;0.84;100.00;-18050.16;5025486;28;20045;-85
2023/03/12 02:27:35;;;;;;;11.30;6.50;;;;;;;0.84;100.00;-18050.03;5011614;28;20051;-85
2023/03/12 02:30:02;;;;;;;13.77;6.25;;;;;;;0.90;100.00;-18051.69;5021041;28;20091;-85
2023/03/12 02:32:34;;;;;;;9.45;5.80;;;;;;;0.90;100.00;-18051.69;5027436;28;20045;-86
2023/03/12 02:35:00;;;;;;;8.80;5.78;;;;;;;0.92;100.00;-18052.25;5026639;28;20046;-86
2023/03/12 02:37:26;;;;;;;11.02;5.90;;;;;;;0.91;100.00;-18051.97;5028453;28;20670;-85
2023/03/12 02:39:59;;;;;;;10.23;5.47;;;;;;;0.92;100.00;-18052.09;5025289;28;20049;-84
2023/03/12 02:42:25;;;;;;;7.78;5.40;;;;;;;0.94;100.00;-18052.78;5025685;28;20045;-85
2023/03/12 02:44:50;;;;;;;8.63;5.78;;;;;;;0.97;100.00;-18053.63;5025269;28;20042;-85
2023/03/12 02:47:16;;;;;;;8.43;5.47;;;;;;;0.98;100.00;-18053.75;5030344;28;20577;-85
2023/03/12 02:49:41;;;;;;;10.73;5.68;;;;;;;1.03;100.00;-18055.16;5020022;28;20033;-84
2023/03/12 02:52:06;;;;;;;10.20;5.90;;;;;;;0.98;100.00;-18053.75;5019350;28;20129;-85
2023/03/12 02:54:32;;;;;;;9.55;6.18;;;;;;;1.01;100.00;-18054.75;5020324;28;20245;-85
2023/03/12 02:56:57;;;;;;;9.35;6.30;;;;;;;0.98;100.00;-18053.91;5030646;28;20042;-85
2023/03/12 02:59:25;;;;;;;16.38;6.40;;;;;;;1.02;100.00;-18055.00;5030989;28;20102;-85
2023/03/12 03:01:53;;;;;;;10.38;6.35;;;;;;;1.02;100.00;-18054.88;5030981;28;20117;-85
2023/03/12 03:04:18;;;;;;;8.98;6.28;;;;;;;0.96;100.00;-18053.34;5024082;28;20114;-85
2023/03/12 03:06:46;;;;;;;10.77;6.47;;;;;;;0.95;100.00;-18053.06;5028221;28;20563;-85
2023/03/12 03:09:11;;;;;;;10.25;6.70;;;;;;;0.97;100.00;-18053.63;5022936;28;20115;-85
2023/03/12 03:11:37;;;;;;;10.05;6.63;;;;;;;0.99;100.00;-18054.19;5028382;28;20049;-85
2023/03/12 03:14:03;;;;;;;9.15;6.28;;;;;;;1.00;100.00;-18054.31;5022959;28;20056;-85
2023/03/12 03:16:28;;;;;;;9.93;6.78;;;;;;;1.01;100.00;-18054.75;5042820;28;20033;-85
2023/03/12 03:18:54;;;;;;;8.68;6.35;;;;;;;1.01;100.00;-18054.59;5024991;28;20134;-84
2023/03/12 03:21:21;;;;;;;11.23;6.43;;;;;;;1.06;100.00;-18055.97;5015143;28;20296;-84
2023/03/12 03:23:48;;;;;;;8.43;5.70;;;;;;;1.04;100.00;-18055.44;5020010;28;20099;-85
2023/03/12 03:26:15;;;;;;;11.73;6.55;;;;;;;1.06;100.00;-18056.13;5029683;28;20116;-85
2023/03/12 03:28:41;;;;;;;11.52;6.18;;;;;;;1.07;100.00;-18056.25;5015402;28;20408;-85
2023/03/12 03:31:07;;;;;;;9.70;6.25;;;;;;;1.05;100.00;-18055.84;5004836;28;20045;-85
2023/03/12 03:33:34;;;;;;;8.27;6.40;;;;;;;1.02;100.00;-18054.88;5025562;28;20132;-85
2023/03/12 03:36:01;;;;;;;9.48;5.85;;;;;;;1.02;100.00;-18054.88;4999867;28;20087;-85
2023/03/12 03:38:28;;;;;;;9.38;5.43;;;;;;;1.02;100.00;-18055.00;5023115;28;20125;-85
2023/03/12 03:40:54;;;;;;;10.18;5.70;;;;;;;1.04;100.00;-18055.56;5031029;28;20128;-85
2023/03/12 03:43:21;;;;;;;10.35;6.25;;;;;;;1.07;100.00;-18056.41;5032228;28;20049;-85
2023/03/12 03:45:46;;;;;;;11.88;6.15;;;;;;;1.09;100.00;-18056.81;5031173;28;20060;-84
2023/03/12 03:48:12;;;;;;;9.88;5.40;;;;;;;1.05;100.00;-18055.84;5030796;28;20045;-85
2023/03/12 03:50:39;;;;;;;10.82;6.25;;;;;;;1.04;100.00;-18055.44;5027133;28;20044;-86
2023/03/12 03:53:06;;;;;;;10.88;5.35;;;;;;;1.03;100.00;-18055.28;5028731;28;20397;-86
2023/03/12 03:55:36;;;;;;;9.75;5.95;;;;;;;1.07;100.00;-18056.41;5019194;28;20061;-85
2023/03/12 03:58:01;;;;;;;11.13;5.57;;;;;;;1.10;100.00;-18057.09;5027226;28;20072;-84
2023/03/12 04:00:27;;;;;;;8.43;5.45;;;;;;;1.05;100.00;-18055.84;5020745;28;20114;-85
2023/03/12 04:02:52;;;;;;;11.70;6.05;;;;;;;1.03;100.00;-18055.28;5027825;28;20053;-84
2023/03/12 04:05:19;;;;;;;11.82;6.47;;;;;;;1.00;100.00;-18054.31;5030839;28;20048;-85
2023/03/12 04:07:44;;;;;;;11.38;6.10;;;;;;;0.98;100.00;-18053.91;5030719;28;20131;-85
2023/03/12 04:10:10;;;;;;;13.90;6.47;;;;;;;0.97;100.00;-18053.50;5029877;28;20496;-85
2023/03/12 04:12:36;;;;;;;9.50;6.15;;;;;;;1.00;100.00;-18054.31;5027673;28;20053;-85
2023/03/12 04:15:01;;;;;;;10.10;6.38;;;;;;;1.00;100.00;-18054.31;5027328;28;20443;-85
2023/03/12 04:17:26;;;;;;;12.38;6.18;;;;;;;1.01;100.00;-18054.75;5026667;28;20037;-85
2023/03/12 04:19:52;;;;;;;10.35;6.05;;;;;;;1.01;100.00;-18054.75;5029721;28;20609;-86
2023/03/12 04:22:17;;;;;;;9.48;6.20;;;;;;;1.03;100.00;-18055.28;5011767;28;20045;-85
2023/03/12 04:24:42;;;;;;;12.13;6.13;;;;;;;1.03;100.00;-18055.28;5014449;28;20124;-84
2023/03/12 04:27:08;;;;;;;10.20;6.20;;;;;;;1.05;100.00;-18055.84;5018172;28;20446;-84
2023/03/12 04:29:33;;;;;;;10.60;6.68;;;;;;;1.06;100.00;-18055.97;5031417;28;20116;-85
2023/03/12 04:31:59;;;;;;;14.75;6.00;;;;;;;1.05;100.00;-18055.69;5018603;28;20046;-84
2023/03/12 04:34:24;;;;;;;11.98;6.10;;;;;;;1.07;100.00;-18056.41;5032760;28;20037;-84
2023/03/12 04:36:49;;;;;;;9.55;6.30;;;;;;;1.10;100.00;-18057.09;5026441;28;20045;-84
2023/03/12 04:39:19;;;;;;;9.23;6.53;;;;;;;1.08;100.00;-18056.53;5032335;28;20043;-84
2023/03/12 04:41:45;;;;;;;11.65;6.53;;;;;;;1.08;100.00;-18056.66;5029910;28;20037;-84
2023/03/12 04:44:11;;;;;;;8.00;5.32;;;;;;;1.08;100.00;-18056.66;5020672;28;20124;-84
2023/03/12 04:46:37;;;;;;;10.70;5.97;;;;;;;1.08;100.00;-18056.66;5032085;28;20091;-84
2023/03/12 04:49:03;;;;;;;10.18;6.15;;;;;;;1.08;100.00;-18056.66;5003346;28;20042;-84
2023/03/12 04:51:29;;;;;;;13.48;6.43;;;;;;;1.08;100.00;-18056.53;5029975;28;20466;-84
2023/03/12 04:53:55;;;;;;;12.02;5.80;;;;;;;1.07;100.00;-18056.41;5027958;28;20098;-84
2023/03/12 04:56:20;;;;;;;7.93;5.50;;;;;;;1.08;100.00;-18056.53;5044840;28;20123;-84
2023/03/12 04:58:46;;;;;;;10.80;6.13;;;;;;;1.10;100.00;-18057.22;5015604;28;20037;-84
2023/03/12 05:01:20;;;;;;;8.52;5.85;;;;;;;1.07;100.00;-18056.41;5026638;28;20037;-84
2023/03/12 05:03:46;;;;;;;9.95;5.88;;;;;;;1.11;100.00;-18057.50;5024104;28;20041;-84
2023/03/12 05:06:11;;;;;;;9.80;5.43;;;;;;;1.10;100.00;-18057.09;5027847;28;20040;-85
2023/03/12 05:08:37;;;;;;;7.82;5.35;;;;;;;1.15;100.00;-18058.34;5032779;28;20114;-84
2023/03/12 05:11:02;;;;;;;8.13;5.40;;;;;;;1.16;100.00;-18058.63;5031092;28;20048;-84
2023/03/12 05:13:28;;;;;;;11.50;5.03;;;;;;;1.14;100.00;-18058.19;5031470;28;20037;-85
2023/03/12 05:15:53;;;;;;;9.85;4.85;;;;;;;1.12;100.00;-18057.63;5018541;28;20440;-84
2023/03/12 05:18:21;;;;;;;9.23;5.10;;;;;;;1.16;100.00;-18058.75;5028624;28;20041;-85
2023/03/12 05:20:56;;;;;;;11.45;5.20;;;;;;;1.17;100.00;-18058.88;5032717;28;20120;-85
2023/03/12 05:23:21;;;;;;;11.23;5.72;;;;;;;1.16;100.00;-18058.75;5034962;28;20050;-84
2023/03/12 05:25:46;;;;;;;8.23;5.57;;;;;;;1.15;100.00;-18058.34;5036917;28;20045;-84
2023/03/12 05:28:12;;;;;;;11.43;5.28;;;;;;;1.15;100.00;-18058.34;5018306;28;20519;-84
2023/03/12 05:30:38;;;;;;;9.50;4.43;;;;;;;1.15;100.00;-18058.34;5020360;28;20033;-85
2023/03/12 05:33:03;;;;;;;11.48;5.82;;;;;;;1.15;100.00;-18058.34;5035842;28;20045;-84
2023/03/12 05:35:29;;;;;;;11.35;5.32;;;;;;;1.15;100.00;-18058.47;5032402;28;20461;-84
2023/03/12 05:37:54;;;;;;;10.10;5.15;;;;;;;1.17;100.00;-18058.88;5025671;28;20096;-84
2023/03/12 05:40:19;;;;;;;9.05;4.82;;;;;;;1.18;100.00;-18059.31;5026390;28;20033;-85
2023/03/12 05:42:45;;;;;;;10.05;5.32;;;;;;;1.19;100.00;-18059.44;5028057;28;20042;-84
2023/03/12 05:45:10;;;;;;;8.35;4.85;;;;;;;1.22;100.00;-18060.28;5026898;28;20048;-84
2023/03/12 05:47:36;;;;;;;7.82;4.95;;;;;;;1.24;100.00;-18060.97;5036112;28;20041;-84
2023/03/12 05:50:01;;;;;;;10.60;5.07;;;;;;;1.26;100.00;-18061.50;5000649;28;20034;-84
2023/03/12 05:52:27;;;;;;;8.05;4.38;;;;;;;1.30;100.00;-18062.50;5025381;28;20042;-85
2023/03/12 05:54:52;;;;;;;8.32;4.63;;;;;;;1.32;100.00;-18063.03;5036506;28;20366;-84
2023/03/12 05:57:17;;;;;;;7.68;3.88;;;;;;;1.35;100.00;-18064.00;5034778;28;20029;-85
2023/03/12 05:59:43;;;;;;;11.65;4.60;;;;;;;1.38;100.00;-18064.69;5028299;28;20068;-84
2023/03/12 06:02:08;;;;;;;8.57;4.38;;;;;;;1.41;100.00;-18065.38;5033932;28;20079;-85
2023/03/12 06:04:33;;;;;;;7.28;4.28;;;;;;;1.43;100.00;-18065.94;5048234;28;20045;-85
2023/03/12 06:06:59;;;;;;;6.40;3.83;;;;;;;1.45;100.00;-18066.63;5013612;28;20037;-85
2023/03/12 06:09:24;;;;;;;6.80;4.85;;;;;;;1.47;100.00;-18067.06;5029329;28;20049;-85
2023/03/12 06:11:49;;;;;;;11.45;5.82;;;;;;;1.49;100.00;-18067.59;5027038;28;20062;-85
2023/03/12 06:14:15;;;;;;;10.10;5.75;;;;;;;1.51;100.00;-18068.31;5024854;28;20121;-84
2023/03/12 06:16:40;;;;;;;6.32;4.40;;;;;;;1.52;100.00;-18068.56;5027686;28;20050;-84
2023/03/12 06:19:06;;;;;;;7.85;4.38;;;;;;;1.53;100.00;-18068.84;5015589;28;20551;-84
2023/03/12 06:21:34;;;;;;;9.50;4.30;;;;;;;1.58;100.00;-18070.25;5037743;28;20673;-85
2023/03/12 06:24:00;;;;;;;7.07;3.75;;;;;;;1.60;100.00;-18070.50;5025431;28;20133;-85
2023/03/12 06:26:26;;;;;;;6.00;3.72;;;;;;;1.63;100.00;-18071.47;5034288;28;20057;-84
2023/03/12 06:28:52;;;;;;;8.63;3.95;;;;;;;1.63;100.00;-18071.34;5039050;28;20060;-85
2023/03/12 06:31:18;;;;;;;8.38;4.60;;;;;;;1.65;100.00;-18071.91;5028678;28;20045;-85
2023/03/12 06:33:44;;;;;;;6.03;4.22;;;;;;;1.68;100.00;-18072.72;5017280;28;20061;-85
2023/03/12 06:36:10;;;;;;;8.20;4.22;;;;;;;1.66;100.00;-18072.31;5032170;28;20072;-84
2023/03/12 06:38:37;;;;;;;13.25;5.13;;;;;;;1.70;100.00;-18073.28;5020762;28;20061;-84
2023/03/12 06:41:09;;;;;;;7.75;4.90;;;;;;;1.66;100.00;-18072.19;5019192;28;20037;-86
2023/03/12 06:43:36;;;;;;;10.45;4.43;;;;;;;1.66;100.00;-18072.31;5037671;28;20092;-85
2023/03/12 06:46:02;;;;;;;10.20;4.65;;;;;;;1.67;100.00;-18072.44;5037933;28;20107;-85
2023/03/12 06:48:32;;;;;;;12.63;3.97;;;;;;;1.67;100.00;-18072.44;5038031;28;20041;-85
2023/03/12 06:50:58;;;;;;;9.90;5.05;;;;;;;1.67;100.00;-18072.44;5032927;28;20038;-84
2023/03/12 06:53:24;;;;;;;10.65;4.75;;;;;;;1.68;100.00;-18072.72;5025881;28;20050;-85
2023/03/12 06:55:50;;;;;;;8.68;4.32;;;;;;;1.65;100.00;-18071.91;5015170;28;20041;-85
2023/03/12 06:58:17;;;;;;;8.70;3.95;;;;;;;1.64;100.00;-18071.75;5025082;28;20117;-84
2023/03/12 07:00:42;;;;;;;11.00;5.28;;;;;;;1.66;100.00;-18072.31;5033002;28;20057;-85
2023/03/12 07:03:08;;;;;;;12.05;4.80;;;;;;;1.66;100.00;-18072.19;5029725;28;20042;-85
2023/03/12 07:05:33;;;;;;;10.55;4.93;;;;;;;1.67;100.00;-18072.44;5023702;28;20076;-85
2023/03/12 07:07:58;;;;;;;9.32;4.70;;;;;;;1.67;100.00;-18072.44;5026810;28;20110;-85
2023/03/12 07:10:26;;;;;;;11.52;4.57;;;;;;;1.70;100.00;-18073.41;5029516;28;20106;-84
2023/03/12 07:12:52;;;;;;;7.57;4.50;;;;;;;1.70;100.00;-18073.41;5031604;28;20570;-85
2023/03/12 07:15:17;;;;;;;8.80;4.60;;;;;;;1.73;100.00;-18074.25;5018157;28;20095;-84
2023/03/12 07:17:43;;;;;;;10.60;5.15;;;;;;;1.76;100.00;-18074.94;5029240;28;20144;-84
2023/03/12 07:20:09;;;;;;;9.35;5.18;;;;;;;1.78;100.00;-18075.50;5017149;28;20052;-85
2023/03/12 07:22:34;;;;;;;10.88;5.07;;;;;;;1.79;100.00;-18075.78;5026601;28;20072;-84
2023/03/12 07:25:00;;;;;;;10.23;5.15;;;;;;;1.80;100.00;-18076.06;5027255;28;20053;-85
2023/03/12 07:27:25;;;;;;;6.60;3.80;;;;;;;1.81;100.00;-18076.31;5015410;28;20045;-84
2023/03/12 07:29:51;;;;;;;11.93;4.43;;;;;;;1.80;100.00;-18076.06;5035168;28;20065;-83
2023/03/12 07:32:17;;;;;;;9.52;4.70;;;;;;;1.83;100.00;-18076.75;5030941;28;20029;-83
2023/03/12 07:34:42;;;;;;;6.75;4.22;;;;;;;1.85;100.00;-18077.44;5030704;28;20107;-85
2023/03/12 07:37:08;;;;;;;8.10;3.90;;;;;;;1.84;100.00;-18077.00;5038079;28;20753;-83
2023/03/12 07:39:33;;;;;;;8.82;4.40;;;;;;;1.83;100.00;-18076.75;5022125;28;20489;-84
2023/03/12 07:41:58;;;;;;;6.30;4.15;;;;;;;1.86;100.00;-18077.72;5029440;28;22433;-85
2023/03/12 07:44:25;;;;;;;11.07;4.43;;;;;;;1.89;100.00;-18078.41;5010461;28;20076;-83
2023/03/12 07:46:51;;;;;;;6.78;4.00;;;;;;;1.90;100.00;-18078.81;5014914;28;20048;-84
2023/03/12 07:49:16;;;;;;;7.55;4.30;;;;;;;1.90;100.00;-18078.69;5019836;28;20049;-83
2023/03/12 07:51:41;;;;;;;9.52;5.15;;;;;;;1.92;100.00;-18079.38;5014418;28;20061;-83
2023/03/12 07:54:07;;;;;;;7.00;4.03;;;;;;;1.91;100.00;-18079.09;5029700;28;20034;-84
2023/03/12 07:56:32;;;;;;;6.97;4.30;;;;;;;2.00;100.00;-18081.44;5010380;28;20133;-84
2023/03/12 07:58:58;;;;;;;7.90;3.67;;;;;;;2.01;100.00;-18081.72;5023533;28;20140;-82
2023/03/12 08:01:24;;;;;;;10.18;3.97;;;;;;;2.01;100.00;-18081.88;5027681;28;20099;-83
2023/03/12 08:03:49;;;;;;;7.38;3.40;;;;;;;2.01;100.00;-18081.88;5021582;28;20053;-85
2023/03/12 08:06:15;;;;;;;8.70;4.05;;;;;;;2.02;100.00;-18082.13;5035612;28;20037;-86
2023/03/12 08:08:41;;;;;;;9.70;3.58;;;;;;;2.04;100.00;-18082.56;5003126;28;20035;-86
2023/03/12 08:11:09;;;;;;;6.90;4.15;;;;;;;2.08;100.00;-18083.53;5013867;28;20540;-86
2023/03/12 08:13:34;;;;;;;6.10;3.97;;;;;;;2.09;100.00;-18083.81;5023104;28;20129;-85
2023/03/12 08:16:00;;;;;;;10.73;4.40;;;;;;;2.12;100.00;-18084.63;5025394;28;20117;-86
2023/03/12 08:18:26;;;;;;;7.95;4.55;;;;;;;2.15;100.00;-18085.59;5026425;28;20060;-84
2023/03/12 08:20:53;;;;;;;9.32;4.03;;;;;;;2.23;100.00;-18087.66;5011371;28;20058;-85
2023/03/12 08:23:19;;;;;;;10.82;4.53;;;;;;;2.30;100.00;-18089.59;5018101;28;20052;-85
2023/03/12 08:25:46;;;;;;;11.88;5.18;;;;;;;2.36;100.00;-18091.28;5019860;28;20496;-85
2023/03/12 08:28:12;;;;;;;10.65;4.72;;;;;;;2.35;100.00;-18091.00;5019455;28;20049;-85
2023/03/12 08:30:38;;;;;;;9.85;5.47;;;;;;;2.30;100.00;-18089.47;5021914;28;20033;-85
2023/03/12 08:33:03;;;;;;;13.07;5.15;;;;;;;2.29;100.00;-18089.34;5019072;28;20043;-86
2023/03/12 08:35:29;;;;;;;10.40;5.28;;;;;;;2.33;100.00;-18090.44;5011581;28;20496;-85
2023/03/12 08:37:55;;;;;;;8.75;4.55;;;;;;;2.34;100.00;-18090.72;5022924;28;20116;-85
2023/03/12 08:40:22;;;;;;;13.02;6.85;;;;;;;2.33;100.00;-18090.44;5025184;28;20263;-85
2023/03/12 08:42:47;;;;;;;11.48;6.38;;;;;;;2.33;100.00;-18090.44;5024835;28;20509;-86
2023/03/12 08:45:14;;;;;;;13.57;6.68;;;;;;;2.39;100.00;-18091.97;5023326;28;20064;-85
2023/03/12 08:47:42;;;;;;;20.70;6.70;;;;;;;2.39;100.00;-18091.97;5022787;28;20042;-85
2023/03/12 08:50:09;;;;;;;17.38;7.60;;;;;;;2.42;100.00;-18092.78;5022705;28;20042;-87
2023/03/12 08:52:34;;;;;;;17.83;8.55;;;;;;;2.48;100.00;-18094.44;5027501;28;20041;-86
2023/03/12 08:54:59;;;;;;;12.88;7.50;;;;;;;2.46;100.00;-18094.03;5028429;28;20048;-85
2023/03/12 08:57:25;;;;;;;17.15;8.00;;;;;;;2.51;100.00;-18095.16;5003360;28;20080;-85
2023/03/12 08:59:50;;;;;;;18.42;8.75;;;;;;;2.51;100.00;-18095.16;5020667;28;20080;-84
2023/03/12 09:02:15;;;;;;;14.25;8.10;;;;;;;2.53;100.00;-18095.84;5008757;28;20046;-84
2023/03/12 09:04:41;;;;;;;17.80;9.75;;;;;;;2.55;100.00;-18096.38;5025208;28;20130;-84
2023/03/12 09:07:08;;;;;;;19.80;9.93;;;;;;;2.54;100.00;-18095.97;5022733;28;20041;-84
2023/03/12 09:09:33;;;;;;;17.67;9.63;;;;;;;2.52;100.00;-18095.56;5027709;28;20150;-86
2023/03/12 09:11:59;;;;;;;17.25;11.63;;;;;;;2.62;100.00;-18098.19;5018659;28;20167;-85
2023/03/12 09:14:24;;;;;;;21.98;14.40;;;;;;;2.62;100.00;-18098.19;5028832;28;20072;-85
2023/03/12 09:16:50;;;;;;;25.05;13.07;;;;;;;2.62;100.00;-18098.19;5029808;28;20636;-85
2023/03/12 09:19:15;;;;;;;23.33;12.68;;;;;;;2.60;100.00;-18097.78;5016821;28;20672;-84
2023/03/12 09:21:41;;;;;;;26.23;13.82;;;;;;;2.59;100.00;-18097.34;5026289;28;20041;-85
2023/03/12 09:24:06;;;;;;;26.33;13.57;;;;;;;2.57;100.00;-18096.94;5009277;28;20038;-85
2023/03/12 09:26:32;;;;;;;23.15;14.45;;;;;;;2.56;100.00;-18096.66;5025126;28;20045;-84
2023/03/12 09:28:58;;;;;;;26.17;16.45;;;;;;;2.60;100.00;-18097.63;5016200;28;20382;-86
2023/03/12 09:31:24;;;;;;;23.80;16.00;;;;;;;2.59;100.00;-18097.50;5018879;28;20034;-85
2023/03/12 09:33:51;;;;;;;25.90;15.95;;;;;;;2.58;100.00;-18097.22;5021363;28;20041;-84
2023/03/12 09:36:16;;;;;;;25.88;14.95;;;;;;;2.59;100.00;-18097.34;5022355;28;20555;-84
2023/03/12 09:38:41;;;;;;;25.77;16.13;;;;;;;2.63;100.00;-18098.47;5020654;28;20075;-85
2023/03/12 09:41:17;;;;;;;28.48;16.15;;;;;;;2.64;100.00;-18098.72;5017664;28;20041;-83
2023/03/12 09:43:50;;;;;;;23.92;16.05;;;;;;;2.65;100.00;-18099.00;5022785;28;20045;-84
2023/03/12 09:46:25;;;;;;;26.92;16.20;;;;;;;2.65;100.00;-18099.16;5026689;28;20069;-84
2023/03/12 09:48:54;;;;;;;27.05;15.90;;;;;;;2.70;100.00;-18100.41;5030162;28;20655;-84
2023/03/12 09:51:27;;;;;;;31.88;18.63;;;;;;;2.76;100.00;-18102.06;5028818;28;20049;-84
2023/03/12 09:53:56;;;;;;;26.77;18.33;;;;;;;2.78;100.00;-18102.59;5010445;28;20128;-83
2023/03/12 09:56:22;;;;;;;28.42;16.52;;;;;;;2.79;100.00;-18102.88;5021752;28;20046;-83
2023/03/12 09:58:53;;;;;;;29.08;17.50;;;;;;;2.81;100.00;-18103.31;5004831;28;20326;-83
2023/03/12 10:01:42;;;;;;;33.88;20.58;;;;;;;2.88;100.00;-18105.25;5018047;28;20550;-84
2023/03/12 10:04:32;;;;;;;33.03;21.95;;;;;;;2.93;100.00;-18106.75;5024081;28;20195;-83
2023/03/12 10:07:04;;;;;;;32.78;23.95;;;;;;;3.03;100.00;-18109.25;5023651;28;20175;-83
2023/03/12 10:10:01;;;;;;;30.75;20.85;;;;;;;3.10;100.00;-18111.19;5025659;28;20129;-83
2023/03/12 10:12:42;;;;;;;31.90;20.38;;;;;;;3.14;100.00;-18112.28;5012075;28;20080;-83
2023/03/12 10:15:27;;;;;;;26.33;20.25;;;;;;;3.19;100.00;-18113.66;5020681;28;20038;-83
2023/03/12 10:18:14;;;;;;;32.88;22.38;;;;;;;3.27;100.00;-18115.88;5023546;28;20442;-83
2023/03/12 10:20:57;;;;;;;28.92;21.75;;;;;;;3.30;100.00;-18116.72;5027631;28;20492;-83
2023/03/12 10:23:28;;;;;;;35.50;22.45;;;;;;;3.35;100.00;-18118.09;5022807;28;20046;-82
2023/03/12 10:26:05;;;;;;;26.65;20.08;;;;;;;3.38;100.00;-18118.78;5025667;28;20060;-83
2023/03/12 10:28:42;;;;;;;25.58;15.80;;;;;;;3.50;100.00;-18121.97;5025009;28;20046;-82
2023/03/12 10:31:27;;;;;;;25.48;17.38;;;;;;;3.50;100.00;-18122.09;5033913;28;20041;-83
2023/03/12 10:33:57;;;;;;;25.73;20.38;;;;;;;3.56;100.00;-18123.63;5023477;28;20049;-83
2023/03/12 10:36:44;;;;;;;27.42;19.27;;;;;;;3.61;100.00;-18125.13;5031352;28;20127;-82
2023/03/12 10:39:15;;;;;;;22.27;15.45;;;;;;;3.64;100.00;-18125.84;5030530;28;20092;-82
2023/03/12 10:41:43;;;;;;;24.42;15.32;;;;;;;3.69;100.00;-18127.22;5035911;28;20055;-84
2023/03/12 10:44:17;;;;;;;23.70;17.35;;;;;;;3.77;100.00;-18129.28;5034250;28;20049;-82
2023/03/12 10:46:56;;;;;;;21.80;15.65;;;;;;;3.76;100.00;-18129.16;5022278;28;20064;-83
2023/03/12 10:49:22;;;;;;;26.17;18.75;;;;;;;3.82;100.00;-18130.66;5022696;28;20040;-83
2023/03/12 10:51:59;;;;;;;21.92;15.60;;;;;;;3.86;100.00;-18131.78;5025174;28;20443;-83
2023/03/12 10:54:33;;;;;;;23.40;17.00;;;;;;;3.95;100.00;-18134.13;5026320;28;20080;-83
2023/03/12 10:56:58;;;;;;;21.23;16.02;;;;;;;4.00;100.00;-18135.50;5025342;28;20037;-83
2023/03/12 10:59:27;;;;;;;21.35;15.70;;;;;;;4.09;100.00;-18138.00;5030708;28;20399;-82
2023/03/12 11:01:54;;;;;;;23.90;19.25;;;;;;;4.16;100.00;-18139.91;5026191;28;20080;-83
2023/03/12 11:04:29;;;;;;;27.38;18.63;;;;;;;4.26;100.00;-18142.69;5029092;28;20061;-83
2023/03/12 11:07:05;;;;;;;29.75;21.73;;;;;;;4.34;100.00;-18144.63;5028177;28;20103;-83
2023/03/12 11:09:31;;;;;;;28.10;19.10;;;;;;;4.38;100.00;-18145.72;5023523;28;20046;-81
2023/03/12 11:11:56;;;;;;;27.02;20.83;;;;;;;4.47;100.00;-18148.22;5036658;28;20045;-82
2023/03/12 11:14:25;;;;;;;23.88;17.10;;;;;;;4.51;100.00;-18149.44;5031543;28;20602;-82
2023/03/12 11:16:51;;;;;;;24.63;17.57;;;;;;;4.57;100.00;-18150.84;5025639;28;20438;-83
2023/03/12 11:19:34;;;;;;;26.95;17.27;;;;;;;4.65;100.00;-18153.03;5024597;28;20276;-83